Aviation Digital Data Service (ADDS)

Output produced by METARs form (0410 UTC 05 May 2015)
found at http://www.aviationweather.gov/adds/metars/
 
KJST 050354Z AUTO 30008KT 10SM OVC080 18/11 A3025 RMK AO2 SLP230 T01830106
KJST 050254Z AUTO 31011KT 10SM OVC090 19/11 A3024 RMK AO2 SLP229 T01890106 53017
KJST 050154Z AUTO 25005KT 10SM BKN080 OVC100 21/07 A3021 RMK AO2 SLP220 T02060072
KJST 050054Z AUTO 25007KT 10SM OVC095 21/07 A3020 RMK AO2 SLP216 T02110072
KJST 042354Z AUTO 27009KT 10SM FEW080 22/07 A3019 RMK AO2 SLP214 T02220067 10250 20222 53005
KJST 042254Z AUTO 27013G22KT 10SM CLR 23/06 A3018 RMK AO2 SLP211 T02330061
KJST 042154Z AUTO 23012KT 10SM FEW080 SCT095 24/05 A3018 RMK AO2 SLP210 T02440050
KJST 042054Z AUTO 25008G20KT 10SM FEW095 24/06 A3018 RMK AO2 SLP209 T02440056 58009
KJST 041954Z AUTO 26011G19KT 230V300 10SM CLR 25/06 A3019 RMK AO2 SLP211 T02500061
KJST 041854Z AUTO 23016G20KT 10SM FEW075 25/06 A3020 RMK AO2 SLP215 T02500061
KJST 041754Z AUTO 27011G21KT 10SM CLR 24/05 A3021 RMK AO2 SLP217 T02440050 10250 20156 58008
KJST 041654Z AUTO 23013KT 10SM CLR 24/04 A3021 RMK AO2 SLP219 T02390044
KJST 041554Z AUTO 25008G15KT 10SM CLR 23/03 A3023 RMK AO2 SLP223 T02280033
KJST 041454Z AUTO 22010G15KT 10SM CLR 22/04 A3023 RMK AO2 SLP226 T02170044 55001
KJST 041354Z AUTO 22008KT 10SM CLR 19/03 A3023 RMK AO2 SLP226 T01940033
KJST 041254Z AUTO 21004KT 10SM CLR 18/03 A3024 RMK AO2 SLP230 T01780028
KJST 041154Z AUTO 21006KT 10SM CLR 16/03 A3023 RMK AO2 SLP231 T01560028 10156 20128 53013
KJST 041054Z AUTO 21005KT 10SM CLR 14/02 A3021 RMK AO2 SLP224 T01390022
KJST 040954Z AUTO 21005KT 10SM CLR 13/02 A3020 RMK AO2 SLP220 T01330022
KJST 040854Z AUTO 21004KT 10SM CLR 13/02 A3019 RMK AO2 SLP217 T01280022 53004
KJST 040754Z AUTO 18004KT 10SM CLR 15/02 A3019 RMK AO2 SLP213 T01500022
KJST 040654Z AUTO 19004KT 10SM CLR 15/02 A3018 RMK AO2 SLP212 T01500022
KJST 040554Z AUTO 20004KT 10SM CLR 16/02 A3018 RMK AO2 SLP212 T01560022 10189 20156 53001
KJST 040454Z AUTO 20005KT 10SM CLR 17/02 A3018 RMK AO2 SLP211 T01670022 402170094
KJST 040354Z AUTO 22004KT 10SM CLR 18/02 A3017 RMK AO2 SLP208 T01780022
KJST 040254Z AUTO 18003KT 10SM CLR 18/03 A3018 RMK AO2 SLP210 T01780028 51013
KJST 040154Z AUTO 00000KT 10SM CLR 18/03 A3017 RMK AO2 SLP208 T01780028
KJST 040054Z AUTO 27003KT 10SM CLR 18/03 A3015 RMK AO2 SLP204 T01830028
KJST 032354Z AUTO 29005KT 10SM CLR 19/03 A3014 RMK AO2 SLP200 T01890033 10217 20189 53003
KJST 032254Z AUTO VRB03KT 10SM CLR 21/04 A3013 RMK AO2 SLP196 T02060039
KJST 032154Z AUTO 29006KT 10SM CLR 20/04 A3013 RMK AO2 SLP198 T02000039
KJST 032054Z AUTO 25007KT 10SM CLR 21/04 A3012 RMK AO2 SLP196 T02110039 58005
KJST 031954Z AUTO VRB06KT 10SM SCT075 BKN095 21/03 A3013 RMK AO2 SLP198 T02110033
KJST 031854Z AUTO 31008KT 10SM SCT075 BKN090 21/03 A3014 RMK AO2 SLP199 T02110033
KJST 031754Z AUTO 26008G14KT 10SM BKN090 20/03 A3014 RMK AO2 SLP199 T02000028 10211 20117 58005
KJST 031654Z AUTO 28015G22KT 10SM BKN080 21/03 A3015 RMK AO2 SLP205 T02060033